Time;durP1;ratioP1;P1;durP2;ratioP2;P2;SDS_P1;SDS_P2;PMS_P1;PMS_P2;Temp;Humidity;BMP_temperature;BMP_pressure;BME280_temperature;BME280_humidity;BME280_pressure;Samples;Min_cycle;Max_cycle;Signal;HPM_P1;HPM_P2
2021/10/30 00:00:36;;;;;;;7.63;4.40;;;13.10;99.90;;;;;;8335412;28;20540;-73
2021/10/30 00:04:41;;;;;;;8.48;4.25;;;13.10;99.90;;;;;;8333742;28;20045;-73
2021/10/30 00:08:43;;;;;;;7.28;4.45;;;13.00;99.90;;;;;;8330449;28;20615;-73
2021/10/30 00:12:44;;;;;;;7.35;4.55;;;13.00;99.90;;;;;;8337938;28;20061;-73
2021/10/30 00:16:46;;;;;;;9.80;4.80;;;13.00;99.90;;;;;;8329413;28;20045;-73
2021/10/30 00:20:48;;;;;;;6.78;4.60;;;12.90;99.90;;;;;;8321057;28;20065;-73
2021/10/30 00:24:50;;;;;;;7.32;4.43;;;12.90;99.90;;;;;;8327670;28;20088;-73
2021/10/30 00:28:52;;;;;;;8.02;4.68;;;12.80;99.90;;;;;;8321881;28;20053;-73
2021/10/30 00:32:53;;;;;;;7.32;4.53;;;12.70;99.90;;;;;;8331753;28;20041;-74
2021/10/30 00:36:58;;;;;;;6.88;4.32;;;12.70;99.90;;;;;;8340203;28;20056;-73
2021/10/30 00:41:04;;;;;;;9.20;4.35;;;12.70;99.90;;;;;;8351355;28;20706;-73
2021/10/30 00:45:07;;;;;;;8.07;5.05;;;12.70;99.90;;;;;;8339990;28;20048;-73
2021/10/30 00:49:11;;;;;;;7.25;4.20;;;12.70;99.90;;;;;;8334020;28;20045;-74
2021/10/30 00:53:13;;;;;;;7.38;4.45;;;12.70;99.90;;;;;;8338558;28;20045;-73
2021/10/30 00:57:17;;;;;;;7.05;4.25;;;12.70;99.90;;;;;;8334511;28;20053;-74
2021/10/30 01:01:18;;;;;;;5.97;4.07;;;12.70;99.90;;;;;;8337656;28;20045;-73
2021/10/30 01:05:20;;;;;;;7.57;4.20;;;12.80;99.90;;;;;;8342006;28;20064;-73
2021/10/30 01:09:22;;;;;;;8.60;4.65;;;12.80;99.90;;;;;;8331275;28;20083;-73
2021/10/30 01:13:26;;;;;;;7.63;3.60;;;12.90;99.90;;;;;;8327944;28;20038;-73
2021/10/30 01:17:28;;;;;;;8.32;4.10;;;12.90;99.90;;;;;;8353681;28;20434;-73
2021/10/30 01:21:33;;;;;;;6.05;3.47;;;13.00;99.90;;;;;;8332561;28;20119;-73
2021/10/30 01:25:35;;;;;;;5.90;3.63;;;13.00;99.90;;;;;;8331993;28;20519;-73
2021/10/30 01:29:37;;;;;;;4.53;2.72;;;13.00;99.90;;;;;;8326338;28;20057;-73
2021/10/30 01:33:42;;;;;;;7.15;3.45;;;13.00;99.90;;;;;;8330628;28;20057;-73
2021/10/30 01:37:43;;;;;;;8.43;3.97;;;13.00;99.90;;;;;;8362222;28;20057;-73
2021/10/30 01:41:45;;;;;;;7.57;3.88;;;12.90;99.90;;;;;;8334078;28;20057;-73
2021/10/30 01:45:47;;;;;;;6.65;4.10;;;12.90;99.90;;;;;;8326946;28;20064;-73
2021/10/30 01:49:49;;;;;;;9.48;3.97;;;12.90;99.90;;;;;;8328719;28;20140;-73
2021/10/30 01:53:51;;;;;;;7.50;4.70;;;12.80;99.90;;;;;;8354047;28;20449;-73
2021/10/30 01:57:53;;;;;;;8.35;4.80;;;12.80;99.90;;;;;;8333315;28;20104;-73
2021/10/30 02:01:54;;;;;;;6.63;4.35;;;12.80;99.90;;;;;;8331391;28;20049;-73
2021/10/30 02:05:57;;;;;;;9.40;4.28;;;12.70;99.90;;;;;;8342887;28;20049;-73
2021/10/30 02:09:59;;;;;;;7.45;4.72;;;12.70;99.90;;;;;;8327859;28;20046;-73
2021/10/30 02:14:01;;;;;;;6.95;4.70;;;12.70;99.90;;;;;;8335364;28;20049;-73
2021/10/30 02:18:03;;;;;;;7.22;4.82;;;12.60;99.90;;;;;;8339206;28;20057;-73
2021/10/30 02:22:05;;;;;;;10.15;4.95;;;12.60;99.90;;;;;;8333499;28;20052;-73
2021/10/30 02:26:08;;;;;;;9.00;5.13;;;12.60;99.90;;;;;;8344974;28;20048;-73
2021/10/30 02:30:09;;;;;;;7.35;4.90;;;12.50;99.90;;;;;;8335616;28;20049;-73
2021/10/30 02:34:11;;;;;;;8.70;5.80;;;12.50;99.90;;;;;;8332375;28;20057;-73
2021/10/30 02:38:13;;;;;;;9.93;5.70;;;12.50;99.90;;;;;;8337526;28;20060;-73
2021/10/30 02:42:15;;;;;;;10.63;5.72;;;12.40;99.90;;;;;;8337077;28;20060;-73
2021/10/30 02:46:16;;;;;;;9.95;5.60;;;12.40;99.90;;;;;;8328857;28;20054;-73
2021/10/30 02:50:19;;;;;;;9.57;6.10;;;12.40;99.90;;;;;;8330256;28;20052;-73
2021/10/30 02:54:21;;;;;;;10.82;5.70;;;12.40;99.90;;;;;;8336486;28;20045;-73
2021/10/30 02:58:22;;;;;;;8.32;5.60;;;12.30;99.90;;;;;;8333388;28;20075;-73
2021/10/30 03:02:24;;;;;;;9.80;5.90;;;12.30;99.90;;;;;;8341903;28;20489;-73
2021/10/30 03:06:26;;;;;;;8.82;5.85;;;12.30;99.90;;;;;;8335733;28;20056;-73
2021/10/30 03:10:28;;;;;;;8.52;5.78;;;12.30;99.90;;;;;;8332919;28;20477;-73
2021/10/30 03:14:30;;;;;;;9.13;5.82;;;12.20;99.90;;;;;;8342460;28;20048;-73
2021/10/30 03:18:31;;;;;;;10.70;6.00;;;12.20;99.90;;;;;;8344155;28;20057;-73
2021/10/30 03:22:34;;;;;;;9.52;5.97;;;12.20;99.90;;;;;;8326220;28;20045;-73
2021/10/30 03:26:35;;;;;;;9.70;6.15;;;12.20;99.90;;;;;;8350711;28;20090;-73
2021/10/30 03:30:37;;;;;;;10.10;6.00;;;12.10;99.90;;;;;;8336002;28;20050;-73
2021/10/30 03:34:39;;;;;;;10.73;5.90;;;12.10;99.90;;;;;;8338928;28;20096;-73
2021/10/30 03:38:41;;;;;;;8.75;5.53;;;12.10;99.90;;;;;;8326517;28;20045;-73
2021/10/30 03:42:43;;;;;;;10.43;6.07;;;12.10;99.90;;;;;;8329570;28;20392;-73
2021/10/30 03:46:44;;;;;;;11.40;5.70;;;12.10;99.90;;;;;;8326311;28;20041;-73
2021/10/30 03:50:47;;;;;;;11.00;5.68;;;12.10;99.90;;;;;;8338281;28;20054;-73
2021/10/30 03:54:49;;;;;;;9.65;6.07;;;12.10;99.90;;;;;;8325967;28;20053;-73
2021/10/30 03:58:50;;;;;;;8.70;5.90;;;12.10;99.90;;;;;;8334592;28;20044;-73
2021/10/30 04:02:52;;;;;;;13.13;6.25;;;12.10;99.90;;;;;;8328569;28;20133;-73
2021/10/30 04:06:54;;;;;;;8.88;5.80;;;12.10;99.90;;;;;;8329992;28;20093;-73
2021/10/30 04:10:56;;;;;;;11.32;5.72;;;12.20;99.90;;;;;;8343800;28;20049;-73
2021/10/30 04:14:58;;;;;;;9.25;6.10;;;12.20;99.90;;;;;;8348078;28;20075;-73
2021/10/30 04:19:00;;;;;;;9.70;6.07;;;12.20;99.90;;;;;;8342802;28;20042;-73
2021/10/30 04:23:02;;;;;;;9.82;6.00;;;12.30;99.90;;;;;;8328762;28;20507;-73
2021/10/30 04:27:04;;;;;;;10.57;5.75;;;12.30;99.90;;;;;;8341439;28;20041;-73
2021/10/30 04:31:08;;;;;;;10.55;6.28;;;12.30;99.90;;;;;;8344621;28;20102;-73
2021/10/30 04:35:14;;;;;;;8.35;6.05;;;12.40;99.90;;;;;;8339787;28;20037;-73
2021/10/30 04:39:19;;;;;;;10.35;6.25;;;12.40;99.90;;;;;;8340619;28;20060;-73
2021/10/30 04:43:20;;;;;;;8.82;5.65;;;12.40;99.90;;;;;;8332360;28;20072;-73
2021/10/30 04:47:23;;;;;;;10.40;5.80;;;12.50;99.90;;;;;;8345707;28;20481;-73
2021/10/30 04:51:25;;;;;;;8.25;5.32;;;12.50;99.90;;;;;;8328175;28;20044;-73
2021/10/30 04:55:27;;;;;;;9.98;6.13;;;12.60;99.90;;;;;;8331607;28;20053;-73
2021/10/30 04:59:29;;;;;;;9.23;5.93;;;12.60;99.90;;;;;;8339122;28;20064;-73
2021/10/30 05:03:30;;;;;;;;;;;12.60;99.90;;;;;;8331878;28;20065;-73
2021/10/30 05:07:32;;;;;;;;;;;12.60;99.90;;;;;;8351153;28;19932;-73
2021/10/30 05:11:34;;;;;;;;;;;12.70;99.90;;;;;;8337705;28;19921;-73
2021/10/30 05:15:35;;;;;;;;;;;12.70;99.90;;;;;;8331842;28;19921;-73
2021/10/30 05:19:37;;;;;;;;;;;12.80;99.90;;;;;;8336045;28;20399;-73
2021/10/30 05:23:40;;;;;;;;;;;12.80;99.90;;;;;;8327934;28;19921;-73
2021/10/30 05:27:41;;;;;;;;;;;12.80;99.90;;;;;;8343442;28;20356;-73
2021/10/30 05:31:43;;;;;;;;;;;12.80;99.90;;;;;;8323369;28;19936;-74
2021/10/30 05:35:44;;;;;;;;;;;12.80;99.90;;;;;;8336493;28;19925;-73
2021/10/30 05:39:48;;;;;;;;;;;12.80;99.90;;;;;;8331842;28;20231;-73
2021/10/30 05:43:50;;;;;;;;;;;12.70;99.90;;;;;;8339743;28;19929;-73
2021/10/30 05:47:52;;;;;;;;;;;12.70;99.90;;;;;;8347442;28;19963;-73
2021/10/30 05:51:54;;;;;;;;;;;12.70;99.90;;;;;;8355112;28;20339;-73
2021/10/30 05:55:55;;;;;;;;;;;12.70;99.90;;;;;;8345878;28;19925;-73
2021/10/30 05:59:57;;;;;;;;;;;12.60;99.90;;;;;;8332243;28;19948;-73
2021/10/30 06:03:58;;;;;;;;;;;12.70;99.90;;;;;;8327955;28;19925;-73
2021/10/30 06:08:00;;;;;;;;;;;12.60;99.90;;;;;;8336909;28;20830;-73
2021/10/30 06:12:02;;;;;;;;;;;12.60;99.90;;;;;;8331201;28;19925;-73
2021/10/30 06:16:04;;;;;;;;;;;12.60;99.90;;;;;;8342750;28;19932;-73
2021/10/30 06:20:06;;;;;;;;;;;12.60;99.90;;;;;;8332314;28;19929;-73
2021/10/30 06:24:08;;;;;;;;;;;12.60;99.90;;;;;;8345152;28;19933;-73
2021/10/30 06:28:10;;;;;;;;;;;12.60;99.90;;;;;;8353676;28;19982;-73
2021/10/30 06:32:11;;;;;;;;;;;12.60;99.90;;;;;;8339605;28;19932;-73
2021/10/30 06:36:13;;;;;;;;;;;12.60;99.90;;;;;;8346855;28;19925;-73
2021/10/30 06:40:15;;;;;;;;;;;12.50;99.90;;;;;;8344935;28;20269;-73
2021/10/30 06:44:19;;;;;;;;;;;12.50;99.90;;;;;;8340999;28;19936;-73
2021/10/30 06:48:21;;;;;;;;;;;12.50;99.90;;;;;;8323070;28;20300;-74
2021/10/30 06:52:24;;;;;;;;;;;12.50;99.90;;;;;;8353145;28;19925;-74
2021/10/30 06:56:26;;;;;;;;;;;12.50;99.90;;;;;;8328399;28;19932;-75
2021/10/30 07:00:27;;;;;;;;;;;12.40;99.90;;;;;;8338565;28;19933;-73
2021/10/30 07:04:29;;;;;;;;;;;12.40;99.90;;;;;;8322848;28;20365;-73
2021/10/30 07:08:31;;;;;;;;;;;12.40;99.90;;;;;;8336349;28;20448;-73
2021/10/30 07:12:34;;;;;;;;;;;12.40;99.90;;;;;;8330874;28;20316;-73
2021/10/30 07:16:38;;;;;;;;;;;12.30;99.90;;;;;;8313951;28;20399;-73
2021/10/30 07:20:39;;;;;;;;;;;12.30;99.90;;;;;;8321956;28;19936;-73
2021/10/30 07:24:41;;;;;;;;;;;12.30;99.90;;;;;;8322960;28;19932;-73
2021/10/30 07:28:43;;;;;;;;;;;12.40;99.90;;;;;;8321341;28;19944;-72
2021/10/30 07:32:50;;;;;;;;;;;12.40;99.90;;;;;;8323215;28;20377;-73
2021/10/30 07:36:51;;;;;;;;;;;12.30;99.90;;;;;;8319365;28;19929;-73
2021/10/30 07:40:53;;;;;;;;;;;12.30;99.90;;;;;;8321507;28;19932;-73
2021/10/30 07:44:55;;;;;;;;;;;12.40;99.90;;;;;;8329930;28;20403;-73
2021/10/30 07:48:57;;;;;;;;;;;12.40;99.90;;;;;;8352574;28;19939;-73
2021/10/30 07:52:59;;;;;;;;;;;12.40;99.90;;;;;;8331504;28;19944;-72
2021/10/30 07:57:01;;;;;;;;;;;12.40;99.90;;;;;;8333302;28;19933;-72
2021/10/30 08:01:03;;;;;;;;;;;12.40;99.90;;;;;;8334610;28;19925;-72
2021/10/30 08:05:06;;;;;;;;;;;12.40;99.90;;;;;;8318887;28;19926;-73
2021/10/30 08:09:07;;;;;;;;;;;12.40;99.90;;;;;;8351052;28;19929;-73
2021/10/30 08:13:10;;;;;;;;;;;12.40;99.90;;;;;;8338367;28;19925;-73
2021/10/30 08:17:11;;;;;;;;;;;12.40;99.90;;;;;;8342373;28;19924;-73
2021/10/30 08:21:13;;;;;;;;;;;12.50;99.90;;;;;;8336812;28;19929;-72
2021/10/30 08:25:15;;;;;;;;;;;12.50;99.90;;;;;;8332023;28;20332;-73
2021/10/30 08:29:16;;;;;;;;;;;12.50;99.90;;;;;;8330404;28;19932;-73
2021/10/30 08:33:19;;;;;;;8.75;4.95;;;12.50;99.90;;;;;;8336427;28;19925;-73
2021/10/30 08:37:21;;;;;;;11.48;5.65;;;12.60;99.90;;;;;;8335262;28;20045;-73
2021/10/30 08:41:23;;;;;;;;;;;12.60;99.90;;;;;;8336725;28;20053;-73
2021/10/30 08:45:28;;;;;;;;;;;12.60;99.90;;;;;;8325363;28;19925;-73
2021/10/30 08:49:30;;;;;;;;;;;12.60;99.90;;;;;;8323387;28;19920;-73
2021/10/30 08:53:31;;;;;;;;;;;12.60;99.90;;;;;;8321735;28;19925;-73
2021/10/30 08:57:34;;;;;;;;;;;12.60;99.90;;;;;;8320185;28;19929;-73
2021/10/30 09:01:48;;;;;;;;;;;12.60;99.90;;;;;;8315740;28;19920;-73
2021/10/30 09:05:52;;;;;;;;;;;12.60;99.90;;;;;;8319765;28;19921;-74
2021/10/30 09:09:56;;;;;;;;;;;12.60;99.90;;;;;;8326282;28;19920;-73
2021/10/30 09:13:58;;;;;;;;;;;12.60;99.90;;;;;;8321011;28;19975;-73
2021/10/30 09:18:20;;;;;;;;;;;12.60;99.90;;;;;;8315006;28;19956;-73
2021/10/30 09:22:24;;;;;;;;;;;12.60;99.90;;;;;;8320065;28;20007;-73
2021/10/30 09:26:28;;;;;;;;;;;12.70;99.90;;;;;;8357972;28;19920;-74
2021/10/30 09:30:31;;;;;;;;;;;12.70;99.90;;;;;;8358998;28;19921;-73
2021/10/30 09:34:32;;;;;;;;;;;12.70;99.90;;;;;;8340236;28;19921;-73
2021/10/30 09:38:45;;;;;;;;;;;12.80;99.90;;;;;;8336166;28;19922;-73
2021/10/30 09:42:48;;;;;;;;;;;12.80;99.90;;;;;;8334923;28;19927;-74
2021/10/30 09:46:58;;;;;;;;;;;12.80;99.90;;;;;;8341755;28;19924;-73
2021/10/30 09:51:02;;;;;;;;;;;12.80;99.90;;;;;;8337221;28;19928;-73
2021/10/30 09:55:20;;;;;;;;;;;12.80;99.90;;;;;;8340645;28;19921;-73
2021/10/30 09:59:24;;;;;;;;;;;12.80;99.90;;;;;;8347286;28;20474;-73
2021/10/30 10:03:27;;;;;;;;;;;12.80;99.90;;;;;;8336050;28;19999;-74
2021/10/30 10:07:29;;;;;;;;;;;12.80;99.90;;;;;;8337737;28;19928;-73
2021/10/30 10:11:30;;;;;;;;;;;12.70;99.90;;;;;;8334754;28;20297;-73
2021/10/30 10:15:32;;;;;;;;;;;12.80;99.90;;;;;;8347918;28;19921;-73
2021/10/30 10:19:36;;;;;;;;;;;12.80;99.90;;;;;;8337251;28;19921;-73
2021/10/30 10:23:40;;;;;;;;;;;12.80;99.90;;;;;;8327056;28;20353;-73
2021/10/30 10:27:42;;;;;;;;;;;12.80;99.90;;;;;;8347544;28;19927;-73
2021/10/30 10:31:47;;;;;;;;;;;12.80;99.90;;;;;;8339528;28;19929;-73
2021/10/30 10:36:08;;;;;;;;;;;12.80;99.90;;;;;;8308802;28;19921;-73
2021/10/30 10:40:30;;;;;;;;;;;12.80;99.90;;;;;;8317133;28;19921;-73
2021/10/30 10:44:36;;;;;;;;;;;12.80;99.90;;;;;;8327091;28;19921;-72
2021/10/30 10:48:41;;;;;;;;;;;12.90;99.90;;;;;;8315945;28;19925;-73
2021/10/30 10:52:44;;;;;;;;;;;12.90;99.90;;;;;;8316369;28;19921;-74
2021/10/30 10:56:55;;;;;;;;;;;12.90;99.90;;;;;;8323894;28;20365;-73
2021/10/30 11:01:05;;;;;;;;;;;12.90;99.90;;;;;;8313304;28;19921;-73
2021/10/30 11:05:06;;;;;;;;;;;12.90;99.90;;;;;;8314603;28;19937;-73
2021/10/30 11:09:15;;;;;;;;;;;12.90;99.90;;;;;;8315020;28;19925;-73
2021/10/30 11:13:20;;;;;;;;;;;13.00;99.90;;;;;;8316584;28;19921;-73
2021/10/30 11:17:24;;;;;;;;;;;13.10;99.90;;;;;;8318291;28;19967;-73
2021/10/30 11:21:31;;;;;;;;;;;13.10;99.90;;;;;;8310059;28;19937;-73
2021/10/30 11:25:33;;;;;;;;;;;13.10;99.90;;;;;;8325101;28;19921;-73
2021/10/30 11:29:45;;;;;;;;;;;13.20;99.90;;;;;;8327276;28;19921;-73
2021/10/30 11:34:06;;;;;;;;;;;13.20;99.90;;;;;;8336167;28;20051;-73
2021/10/30 11:38:08;;;;;;;;;;;13.20;99.90;;;;;;8353024;28;20388;-72
2021/10/30 11:42:10;;;;;;;;;;;13.30;99.90;;;;;;8315202;28;19921;-73
2021/10/30 11:46:13;;;;;;;;;;;13.30;99.90;;;;;;8321443;28;25070;-73
2021/10/30 11:50:14;;;;;;;;;;;13.30;99.90;;;;;;8338803;28;25070;-73
2021/10/30 11:54:19;;;;;;;7.95;4.70;;;13.30;99.90;;;;;;8342495;28;19921;-73
2021/10/30 11:58:55;;;;;;;7.50;4.10;;;13.40;99.90;;;;;;8342344;28;20514;-73
2021/10/30 12:03:01;;;;;;;6.72;3.95;;;13.40;99.90;;;;;;8328172;28;20052;-73
2021/10/30 12:07:04;;;;;;;;;;;13.50;99.90;;;;;;8350408;28;20054;-73
2021/10/30 12:11:05;;;;;;;;;;;13.50;99.90;;;;;;8343186;28;19920;-73
2021/10/30 12:15:07;;;;;;;;;;;13.50;99.90;;;;;;8341197;28;19979;-73
2021/10/30 12:19:09;;;;;;;;;;;13.50;99.90;;;;;;8339666;28;19924;-73
2021/10/30 12:23:11;;;;;;;;;;;13.50;99.90;;;;;;8308112;28;20306;-73
2021/10/30 12:27:14;;;;;;;;;;;13.50;99.90;;;;;;8309827;28;19922;-73
2021/10/30 12:31:25;;;;;;;;;;;13.50;99.90;;;;;;8353791;28;20019;-73
2021/10/30 12:35:28;;;;;;;;;;;13.60;99.90;;;;;;8346327;28;19925;-73
2021/10/30 12:39:30;;;;;;;;;;;13.60;99.90;;;;;;8350390;28;19921;-73
2021/10/30 12:43:36;;;;;;;5.75;3.22;;;13.60;99.90;;;;;;8350552;28;20076;-73
2021/10/30 12:47:40;;;;;;;4.95;2.70;;;13.60;99.90;;;;;;8348011;28;20100;-73
2021/10/30 12:51:54;;;;;;;5.90;3.30;;;13.70;99.90;;;;;;8339608;28;20049;-73
2021/10/30 12:56:04;;;;;;;5.72;3.25;;;13.70;99.90;;;;;;8356124;28;20409;-73
2021/10/30 13:00:15;;;;;;;5.38;3.00;;;13.70;99.90;;;;;;8334627;28;20060;-73
2021/10/30 13:04:17;;;;;;;7.13;2.80;;;13.80;99.90;;;;;;8354886;28;20390;-73
2021/10/30 13:08:18;;;;;;;4.18;2.20;;;13.80;99.90;;;;;;8342178;28;20128;-73
2021/10/30 13:12:20;;;;;;;;;;;13.90;99.90;;;;;;8344718;28;20045;-73
2021/10/30 13:16:22;;;;;;;;;;;13.90;99.90;;;;;;8334087;28;19922;-73
2021/10/30 13:20:23;;;;;;;;;;;13.90;99.90;;;;;;8345692;28;20333;-73
2021/10/30 13:24:25;;;;;;;;;;;13.90;99.90;;;;;;8342853;28;19920;-73
2021/10/30 13:28:27;;;;;;;5.25;1.98;;;14.00;99.90;;;;;;8350104;28;20284;-72
2021/10/30 13:32:29;;;;;;;6.63;2.25;;;14.00;99.90;;;;;;8355662;28;20045;-73
2021/10/30 13:36:31;;;;;;;4.57;2.45;;;14.10;99.90;;;;;;8348012;28;20049;-73
2021/10/30 13:40:33;;;;;;;6.38;2.05;;;14.10;99.90;;;;;;8354486;28;20056;-73
2021/10/30 13:44:35;;;;;;;4.38;2.05;;;14.10;99.90;;;;;;8349664;28;20048;-73
2021/10/30 13:48:37;;;;;;;4.25;2.00;;;14.10;99.90;;;;;;8333862;28;20053;-73
2021/10/30 13:52:38;;;;;;;5.65;2.35;;;14.10;99.90;;;;;;8343156;28;20099;-73
2021/10/30 13:56:40;;;;;;;4.57;2.00;;;14.20;99.90;;;;;;8340882;28;20042;-73
2021/10/30 14:00:54;;;;;;;4.70;1.90;;;14.20;99.90;;;;;;8339601;28;20057;-73
2021/10/30 14:04:57;;;;;;;4.18;1.92;;;14.20;99.90;;;;;;8343675;28;20063;-73
2021/10/30 14:08:59;;;;;;;4.88;2.30;;;14.20;99.90;;;;;;8352184;28;20052;-73
2021/10/30 14:13:01;;;;;;;6.43;2.20;;;14.20;99.90;;;;;;8350610;28;20045;-73
2021/10/30 14:17:03;;;;;;;4.03;1.92;;;14.20;99.90;;;;;;8349574;28;20042;-73
2021/10/30 14:21:05;;;;;;;5.00;2.03;;;14.20;99.90;;;;;;8330645;28;20489;-73
2021/10/30 14:25:07;;;;;;;5.63;1.90;;;14.20;99.90;;;;;;8335407;28;20049;-73
2021/10/30 14:29:09;;;;;;;5.30;2.40;;;14.20;99.90;;;;;;8336136;28;20068;-73
2021/10/30 14:33:11;;;;;;;3.72;1.90;;;14.20;99.90;;;;;;8347887;28;20057;-73
2021/10/30 14:37:12;;;;;;;4.13;2.00;;;14.20;99.90;;;;;;8336919;28;20092;-73
2021/10/30 14:41:15;;;;;;;4.53;1.92;;;14.20;99.90;;;;;;8350553;28;20049;-74
2021/10/30 14:45:25;;;;;;;5.30;1.90;;;14.20;99.90;;;;;;8337142;28;20049;-73
2021/10/30 14:49:27;;;;;;;6.72;2.10;;;14.20;99.90;;;;;;8333446;28;20049;-73
2021/10/30 14:53:28;;;;;;;;;;;14.20;99.90;;;;;;8351904;28;20045;-73
2021/10/30 14:57:35;;;;;;;;;;;14.20;99.90;;;;;;8341078;28;19932;-73
2021/10/30 15:01:37;;;;;;;;;;;14.30;99.90;;;;;;8340778;28;19929;-73
2021/10/30 15:05:39;;;;;;;;;;;14.30;99.90;;;;;;8335659;28;19933;-73
2021/10/30 15:09:41;;;;;;;;;;;14.30;99.90;;;;;;8340934;28;19925;-73
2021/10/30 15:13:43;;;;;;;;;;;14.30;99.90;;;;;;8339491;28;19925;-73
2021/10/30 15:17:44;;;;;;;;;;;14.30;99.90;;;;;;8336385;28;20295;-73
2021/10/30 15:21:46;;;;;;;;;;;14.30;99.90;;;;;;8332398;28;19932;-73
2021/10/30 15:25:48;;;;;;;;;;;14.30;99.90;;;;;;8344213;28;20114;-73
2021/10/30 15:29:49;;;;;;;;;;;14.30;99.90;;;;;;8313419;28;19929;-73
2021/10/30 15:33:51;;;;;;;;;;;14.30;99.90;;;;;;8293460;28;19921;-73
2021/10/30 15:37:53;;;;;;;;;;;14.30;99.90;;;;;;8310830;28;19947;-73
2021/10/30 15:41:55;;;;;;;;;;;14.30;99.90;;;;;;8325554;28;19921;-73
2021/10/30 15:45:56;;;;;;;;;;;14.20;99.90;;;;;;8294174;28;19928;-73
2021/10/30 15:49:59;;;;;;;;;;;14.20;99.90;;;;;;8296858;28;19932;-73
2021/10/30 15:54:00;;;;;;;;;;;14.10;99.90;;;;;;8293301;28;19928;-73
2021/10/30 15:58:02;;;;;;;;;;;14.10;99.90;;;;;;8290427;28;19921;-73
2021/10/30 16:02:04;;;;;;;;;;;14.00;99.90;;;;;;8308636;28;20373;-73
2021/10/30 16:06:06;;;;;;;;;;;13.80;99.90;;;;;;8306771;28;19921;-73
2021/10/30 16:10:07;;;;;;;;;;;13.80;99.90;;;;;;8304083;28;19928;-72
2021/10/30 16:14:09;;;;;;;;;;;13.70;99.90;;;;;;8293444;28;19930;-73
2021/10/30 16:18:11;;;;;;;;;;;13.60;99.90;;;;;;8306791;28;19948;-73
2021/10/30 16:22:12;;;;;;;;;;;13.60;99.90;;;;;;8291425;28;19975;-73
2021/10/30 16:26:14;;;;;;;;;;;13.60;99.90;;;;;;8287661;28;19921;-73
2021/10/30 16:30:16;;;;;;;;;;;13.50;99.90;;;;;;8292155;28;19921;-72
2021/10/30 16:34:18;;;;;;;;;;;13.50;99.90;;;;;;8292781;28;19929;-73
2021/10/30 16:38:19;;;;;;;;;;;13.50;99.90;;;;;;8290926;28;19948;-73
2021/10/30 16:42:21;;;;;;;;;;;13.50;99.90;;;;;;8288672;28;19925;-73
2021/10/30 16:46:23;;;;;;;;;;;13.40;99.90;;;;;;8293704;28;19921;-72
2021/10/30 16:50:28;;;;;;;;;;;13.50;99.90;;;;;;8292675;28;19969;-72
2021/10/30 16:54:30;;;;;;;;;;;13.50;99.90;;;;;;8287474;28;20016;-72
2021/10/30 16:58:32;;;;;;;;;;;13.50;99.90;;;;;;8299014;28;20282;-72
2021/10/30 17:02:33;;;;;;;;;;;13.50;99.90;;;;;;8302892;28;19929;-73
2021/10/30 17:06:35;;;;;;;;;;;13.40;99.90;;;;;;8295055;28;19929;-72
2021/10/30 17:10:37;;;;;;;;;;;13.40;99.90;;;;;;8296960;28;19921;-73
2021/10/30 17:14:40;;;;;;;;;;;13.40;99.90;;;;;;8305369;28;19975;-72
2021/10/30 17:18:42;;;;;;;;;;;13.40;99.90;;;;;;8300665;28;19929;-72
2021/10/30 17:22:44;;;;;;;;;;;13.40;99.90;;;;;;8306853;28;19921;-72
2021/10/30 17:26:45;;;;;;;;;;;13.30;99.90;;;;;;8325560;28;19928;-73
2021/10/30 17:30:47;;;;;;;;;;;13.30;99.90;;;;;;8323675;28;20376;-73
2021/10/30 17:34:49;;;;;;;;;;;13.30;99.90;;;;;;8305465;28;20103;-73
2021/10/30 17:38:51;;;;;;;;;;;13.20;99.90;;;;;;8305049;28;20242;-73
2021/10/30 17:42:52;;;;;;;;;;;13.20;99.90;;;;;;8297193;28;19952;-73
2021/10/30 17:46:54;;;;;;;;;;;13.20;99.90;;;;;;8308239;28;19925;-73
2021/10/30 17:50:56;;;;;;;;;;;13.20;99.90;;;;;;8302368;28;19920;-73
2021/10/30 17:54:58;;;;;;;;;;;13.20;99.90;;;;;;8298314;28;20007;-73
2021/10/30 17:58:59;;;;;;;;;;;13.20;99.90;;;;;;8299511;28;19999;-72
2021/10/30 18:03:01;;;;;;;;;;;13.20;99.90;;;;;;8303430;28;19977;-73
2021/10/30 18:07:03;;;;;;;;;;;13.10;99.90;;;;;;8307791;28;19941;-72
2021/10/30 18:11:05;;;;;;;;;;;13.10;99.90;;;;;;8295751;28;20365;-72
2021/10/30 18:15:07;;;;;;;;;;;13.10;99.90;;;;;;8295374;28;20333;-73
2021/10/30 18:19:08;;;;;;;;;;;13.10;99.90;;;;;;8294072;28;19933;-73
2021/10/30 18:23:10;;;;;;;;;;;13.00;99.90;;;;;;8296310;28;19924;-73
2021/10/30 18:27:12;;;;;;;;;;;12.90;99.90;;;;;;8296309;28;19928;-73
2021/10/30 18:31:14;;;;;;;;;;;12.90;99.90;;;;;;8304116;28;19921;-73
2021/10/30 18:35:15;;;;;;;;;;;12.90;99.90;;;;;;8295519;28;19978;-73
2021/10/30 18:39:17;;;;;;;;;;;12.90;99.90;;;;;;8292213;28;19921;-73
2021/10/30 18:43:19;;;;;;;;;;;12.80;99.90;;;;;;8308450;28;19920;-73
2021/10/30 18:47:20;;;;;;;;;;;12.70;99.90;;;;;;8294487;28;20636;-72
2021/10/30 18:51:23;;;;;;;;;;;12.70;99.90;;;;;;8292891;28;20374;-73
2021/10/30 18:55:25;;;;;;;;;;;12.70;99.90;;;;;;8307985;28;19924;-72
2021/10/30 18:59:35;;;;;;;;;;;12.70;99.90;;;;;;8297335;28;19928;-73
2021/10/30 19:03:37;;;;;;;;;;;12.70;99.90;;;;;;8293589;28;19922;-73
2021/10/30 19:07:40;;;;;;;;;;;12.70;99.90;;;;;;8292703;28;20360;-72
2021/10/30 19:11:41;;;;;;;;;;;12.60;99.90;;;;;;8290961;28;20297;-73
2021/10/30 19:15:43;;;;;;;;;;;12.60;99.90;;;;;;8293179;28;19921;-72
2021/10/30 19:19:45;;;;;;;;;;;12.70;99.90;;;;;;8312149;28;20387;-73
2021/10/30 19:23:46;;;;;;;;;;;12.70;99.90;;;;;;8293198;28;20034;-73
2021/10/30 19:27:48;;;;;;;;;;;12.70;99.90;;;;;;8294820;28;20344;-72
2021/10/30 19:31:50;;;;;;;;;;;12.60;99.90;;;;;;8290155;28;20147;-73
2021/10/30 19:35:52;;;;;;;;;;;12.60;99.90;;;;;;8290241;28;19921;-72
2021/10/30 19:39:53;;;;;;;;;;;12.60;99.90;;;;;;8294083;28;19944;-73
2021/10/30 19:43:55;;;;;;;;;;;12.60;99.90;;;;;;8292415;28;19921;-72
2021/10/30 19:48:08;;;;;;;;;;;12.60;99.90;;;;;;8290308;28;19932;-73
2021/10/30 19:52:10;;;;;;;;;;;12.60;99.90;;;;;;8291378;28;20300;-73
2021/10/30 19:56:13;;;;;;;;;;;12.60;99.90;;;;;;8291884;28;19968;-73
2021/10/30 20:00:15;;;;;;;;;;;12.50;99.90;;;;;;8295150;28;20368;-73
2021/10/30 20:04:17;;;;;;;;;;;12.50;99.90;;;;;;8291952;28;20616;-73
2021/10/30 20:08:19;;;;;;;;;;;12.50;99.90;;;;;;8320512;28;20384;-73
2021/10/30 20:12:23;;;;;;;;;;;12.50;99.90;;;;;;8307611;28;19925;-73
2021/10/30 20:16:25;;;;;;;;;;;12.50;99.90;;;;;;8292261;28;19995;-72
2021/10/30 20:20:27;;;;;;;;;;;12.50;99.90;;;;;;8292956;28;19922;-72
2021/10/30 20:24:28;;;;;;;;;;;12.50;99.90;;;;;;8294253;28;20897;-73
2021/10/30 20:28:31;;;;;;;;;;;12.50;99.90;;;;;;8292933;28;19926;-72
2021/10/30 20:32:33;;;;;;;;;;;12.40;99.90;;;;;;8290348;28;19922;-73
2021/10/30 20:36:37;;;;;;;;;;;12.40;99.90;;;;;;8288876;28;19936;-73
2021/10/30 20:40:39;;;;;;;;;;;12.40;99.90;;;;;;8290263;28;19997;-72
2021/10/30 20:44:41;;;;;;;;;;;12.30;99.90;;;;;;8306781;28;19925;-73
2021/10/30 20:48:43;;;;;;;;;;;12.30;99.90;;;;;;8322240;28;19929;-73
2021/10/30 20:52:45;;;;;;;;;;;12.20;99.90;;;;;;8291401;28;20391;-73
2021/10/30 20:56:46;;;;;;;;;;;12.20;99.90;;;;;;8296043;28;20274;-73
2021/10/30 21:00:48;;;;;;;;;;;12.20;99.90;;;;;;8302121;28;20520;-73
2021/10/30 21:04:50;;;;;;;;;;;12.20;99.90;;;;;;8330946;28;19924;-73
2021/10/30 21:08:52;;;;;;;;;;;12.10;99.90;;;;;;8348917;28;20000;-73
2021/10/30 21:12:54;;;;;;;;;;;12.00;99.90;;;;;;8343607;28;19925;-73
2021/10/30 21:16:56;;;;;;;;;;;12.00;99.90;;;;;;8336090;28;19928;-73
2021/10/30 21:20:58;;;;;;;;;;;11.90;99.90;;;;;;8339200;28;19921;-73
2021/10/30 21:24:59;;;;;;;;;;;11.90;99.90;;;;;;8336083;28;19921;-72
2021/10/30 21:29:01;;;;;;;;;;;11.80;99.90;;;;;;8342161;28;20324;-73
2021/10/30 21:33:03;;;;;;;;;;;11.90;99.90;;;;;;8360322;28;19921;-73
2021/10/30 21:37:04;;;;;;;;;;;11.80;99.90;;;;;;8345296;28;19921;-73
2021/10/30 21:41:07;;;;;;;;;;;11.80;99.90;;;;;;8355904;28;19920;-73
2021/10/30 21:45:10;;;;;;;;;;;11.80;99.90;;;;;;8336562;28;19955;-73
2021/10/30 21:49:12;;;;;;;;;;;11.80;99.90;;;;;;8346217;28;19940;-73
2021/10/30 21:53:14;;;;;;;;;;;11.70;99.90;;;;;;8356636;28;19921;-73
2021/10/30 21:57:15;;;;;;;;;;;11.70;99.90;;;;;;8346632;28;20309;-73
2021/10/30 22:01:19;;;;;;;;;;;11.60;99.90;;;;;;8328809;28;19921;-73
2021/10/30 22:05:24;;;;;;;;;;;11.60;99.90;;;;;;8338489;28;19925;-73
2021/10/30 22:09:26;;;;;;;;;;;11.60;99.90;;;;;;8348494;28;19925;-73
2021/10/30 22:13:29;;;;;;;;;;;11.60;99.90;;;;;;8340150;28;20705;-73
2021/10/30 22:17:30;;;;;;;;;;;11.60;99.90;;;;;;8343407;28;19920;-73
2021/10/30 22:21:33;;;;;;;;;;;11.50;99.90;;;;;;8314454;28;19925;-73
2021/10/30 22:25:35;;;;;;;;;;;11.50;99.90;;;;;;8338544;28;19925;-73
2021/10/30 22:29:37;;;;;;;;;;;11.50;99.90;;;;;;8346042;28;19920;-73
2021/10/30 22:33:38;;;;;;;;;;;11.50;99.90;;;;;;8354128;28;19997;-72
2021/10/30 22:37:40;;;;;;;;;;;11.40;99.90;;;;;;8371134;28;19921;-73